Time;durP1;ratioP1;P1;durP2;ratioP2;P2;SDS_P1;SDS_P2;PMS_P1;PMS_P2;Temp;Humidity;BMP_temperature;BMP_pressure;BME280_temperature;BME280_humidity;BME280_pressure;Samples;Min_cycle;Max_cycle;Signal;HPM_P1;HPM_P2
2023/10/03 00:02:03;;;;;;;46.58;27.35;;;17.80;99.90;;;;;;4999791;28;20426;-81
2023/10/03 00:04:28;;;;;;;47.75;28.13;;;18.10;99.90;;;;;;4974918;28;20791;-81
2023/10/03 00:06:54;;;;;;;55.27;28.90;;;18.00;99.90;;;;;;5006744;28;20421;-81
2023/10/03 00:09:20;;;;;;;49.03;28.27;;;18.00;99.90;;;;;;5003240;28;20458;-80
2023/10/03 00:11:45;;;;;;;48.50;27.70;;;18.00;99.90;;;;;;4992408;28;20404;-81
2023/10/03 00:14:11;;;;;;;52.25;27.63;;;18.30;99.90;;;;;;4993403;28;20412;-81
2023/10/03 00:16:37;;;;;;;50.70;28.25;;;18.00;99.90;;;;;;4984727;28;20801;-81
2023/10/03 00:19:04;;;;;;;49.45;28.30;;;18.00;99.90;;;;;;4995066;28;20492;-81
2023/10/03 00:21:29;;;;;;;50.25;27.95;;;17.80;99.90;;;;;;4978043;28;20426;-80
2023/10/03 00:23:55;;;;;;;52.65;28.23;;;17.70;99.90;;;;;;4990274;28;20414;-81
2023/10/03 00:26:22;;;;;;;54.13;28.80;;;17.90;99.90;;;;;;4974366;28;20466;-81
2023/10/03 00:28:49;;;;;;;49.77;27.97;;;17.90;99.90;;;;;;4974049;28;20497;-81
2023/10/03 00:31:15;;;;;;;48.25;26.85;;;17.90;99.90;;;;;;4992318;28;20413;-81
2023/10/03 00:33:41;;;;;;;47.85;27.80;;;17.90;99.90;;;;;;4957676;28;20411;-81
2023/10/03 00:36:27;;;;;;;49.25;27.92;;;17.90;99.90;;;;;;4976032;28;20465;-81
2023/10/03 00:38:53;;;;;;;49.00;27.00;;;17.70;99.90;;;;;;4992314;28;20413;-80
2023/10/03 00:41:19;;;;;;;44.25;25.98;;;17.80;99.90;;;;;;4974200;28;20429;-81
2023/10/03 00:43:52;;;;;;;50.20;26.40;;;18.00;99.90;;;;;;4994363;28;20427;-80
2023/10/03 00:46:18;;;;;;;45.13;26.52;;;18.00;99.90;;;;;;4999421;28;20489;-81
2023/10/03 00:48:47;;;;;;;45.78;26.55;;;18.00;99.90;;;;;;5008957;28;20413;-79
2023/10/03 00:51:14;;;;;;;49.35;27.35;;;17.80;99.90;;;;;;4983625;28;20479;-81
2023/10/03 00:53:41;;;;;;;46.03;26.80;;;17.70;99.90;;;;;;4998742;28;20777;-81
2023/10/03 00:56:09;;;;;;;46.95;27.10;;;17.80;99.90;;;;;;4994038;28;20490;-81
2023/10/03 00:58:36;;;;;;;43.45;25.45;;;17.80;99.90;;;;;;4989087;28;20406;-81
2023/10/03 01:01:03;;;;;;;40.45;24.73;;;18.00;99.90;;;;;;4988274;28;20744;-81
2023/10/03 01:03:37;;;;;;;45.33;26.45;;;18.10;99.90;;;;;;5003045;28;20413;-81
2023/10/03 01:06:11;;;;;;;44.03;26.35;;;17.90;99.90;;;;;;4991122;28;20419;-82
2023/10/03 01:08:46;;;;;;;45.38;27.33;;;17.90;99.90;;;;;;5009824;28;20440;-81
2023/10/03 01:11:16;;;;;;;48.60;27.17;;;17.70;99.90;;;;;;4988707;28;20409;-82
2023/10/03 01:13:47;;;;;;;50.38;27.77;;;17.70;99.90;;;;;;4993172;28;20405;-82
2023/10/03 01:16:33;;;;;;;47.30;27.13;;;17.50;99.90;;;;;;4996269;28;20430;-82
2023/10/03 01:19:08;;;;;;;48.75;28.33;;;17.60;99.90;;;;;;4983757;28;20518;-82
2023/10/03 01:21:34;;;;;;;47.00;27.58;;;17.60;99.90;;;;;;4978197;28;20410;-81
2023/10/03 01:24:13;;;;;;;48.72;27.70;;;17.60;99.90;;;;;;4977391;28;20927;-82
2023/10/03 01:26:39;;;;;;;46.50;27.70;;;17.60;99.90;;;;;;5001148;28;20430;-81
2023/10/03 01:29:05;;;;;;;49.10;26.77;;;17.50;99.90;;;;;;4957690;28;20927;-81
2023/10/03 01:31:31;;;;;;;45.92;25.70;;;17.50;99.90;;;;;;4978904;28;20406;-82
2023/10/03 01:33:56;;;;;;;44.55;24.95;;;17.30;99.90;;;;;;5005396;28;20449;-81
2023/10/03 01:36:22;;;;;;;40.85;24.50;;;17.20;99.90;;;;;;4977979;28;20411;-80
2023/10/03 01:38:48;;;;;;;42.35;24.00;;;17.50;99.90;;;;;;4982888;28;20436;-80
2023/10/03 01:41:14;;;;;;;42.05;24.20;;;17.50;99.90;;;;;;4999371;28;20478;-77
2023/10/03 01:43:43;;;;;;;41.83;23.45;;;17.50;99.90;;;;;;4987321;28;20915;-81
2023/10/03 01:46:17;;;;;;;42.33;23.30;;;17.40;99.90;;;;;;4992659;28;20753;-81
2023/10/03 01:48:43;;;;;;;43.40;23.07;;;15.70;99.90;;;;;;4999878;28;20486;-81
2023/10/03 01:51:10;;;;;;;43.50;23.17;;;17.50;99.90;;;;;;4992826;28;20486;-81
2023/10/03 01:53:36;;;;;;;41.63;22.30;;;17.60;99.90;;;;;;5013929;28;20385;-79
2023/10/03 01:56:03;;;;;;;40.03;22.20;;;17.50;99.90;;;;;;5030811;28;20448;-79
2023/10/03 01:58:30;;;;;;;41.08;22.05;;;17.70;99.90;;;;;;5024604;28;20416;-81
2023/10/03 02:00:56;;;;;;;38.92;21.60;;;17.60;99.90;;;;;;5005828;28;20939;-81
2023/10/03 02:03:22;;;;;;;38.47;21.23;;;17.50;99.90;;;;;;4989523;28;20410;-81
2023/10/03 02:05:48;;;;;;;41.10;21.20;;;17.50;99.90;;;;;;4972821;28;20467;-80
2023/10/03 02:08:17;;;;;;;36.95;20.92;;;17.70;99.90;;;;;;4983452;28;20429;-80
2023/10/03 02:10:47;;;;;;;38.08;20.95;;;17.70;99.90;;;;;;5021070;28;20414;-79
2023/10/03 02:13:14;;;;;;;38.50;20.10;;;17.70;99.90;;;;;;5012449;28;20414;-81
2023/10/03 02:15:54;;;;;;;36.97;19.80;;;17.50;99.90;;;;;;4995699;28;20421;-80
2023/10/03 02:18:21;;;;;;;37.67;20.52;;;17.70;99.90;;;;;;4980913;28;20489;-79
2023/10/03 02:20:52;;;;;;;37.58;20.52;;;17.40;99.90;;;;;;4990409;28;20808;-79
2023/10/03 02:23:25;;;;;;;37.92;19.35;;;17.30;99.90;;;;;;4992584;28;20410;-80
2023/10/03 02:25:58;;;;;;;37.23;19.90;;;17.60;99.90;;;;;;4995931;28;20496;-81
2023/10/03 02:28:26;;;;;;;34.65;19.05;;;17.50;99.90;;;;;;4989623;28;20530;-81
2023/10/03 02:30:52;;;;;;;36.42;19.20;;;17.40;99.90;;;;;;4989267;28;20988;-81
2023/10/03 02:33:21;;;;;;;34.92;18.35;;;17.50;99.90;;;;;;4982592;28;20410;-81
2023/10/03 02:35:47;;;;;;;35.40;18.75;;;17.60;99.90;;;;;;4978658;28;20410;-81
2023/10/03 02:38:24;;;;;;;34.00;17.95;;;17.70;99.90;;;;;;5011330;28;20449;-81
2023/10/03 02:40:59;;;;;;;31.13;17.35;;;17.80;99.90;;;;;;5011243;28;20608;-81
2023/10/03 02:43:30;;;;;;;32.67;17.37;;;18.00;99.90;;;;;;4980552;28;20433;-82
2023/10/03 02:45:56;;;;;;;31.08;16.48;;;17.90;99.90;;;;;;4982758;28;20426;-81
2023/10/03 02:48:22;;;;;;;29.13;17.38;;;17.80;99.90;;;;;;5000468;28;20436;-80
2023/10/03 02:50:50;;;;;;;33.30;17.17;;;17.90;99.90;;;;;;5004305;28;20493;-81
2023/10/03 02:53:22;;;;;;;32.75;18.02;;;17.90;99.90;;;;;;4984357;28;20441;-80
2023/10/03 02:55:52;;;;;;;34.90;17.33;;;17.80;99.90;;;;;;4979255;28;20409;-81
2023/10/03 02:58:20;;;;;;;32.42;16.90;;;18.30;99.90;;;;;;5009701;28;20793;-80
2023/10/03 03:00:52;;;;;;;29.73;16.42;;;18.10;99.90;;;;;;5001563;28;20809;-81
2023/10/03 03:03:17;;;;;;;32.03;17.02;;;18.00;99.90;;;;;;4994081;28;20401;-81
2023/10/03 03:05:44;;;;;;;29.02;16.20;;;18.20;99.90;;;;;;4991832;28;20477;-80
2023/10/03 03:08:22;;;;;;;29.73;16.13;;;18.10;99.90;;;;;;4980479;28;20438;-82
2023/10/03 03:10:51;;;;;;;30.77;15.88;;;18.10;99.90;;;;;;4991204;28;20482;-81
2023/10/03 03:13:18;;;;;;;30.88;16.05;;;18.20;99.90;;;;;;4984332;28;20414;-81
2023/10/03 03:15:51;;;;;;;30.88;16.40;;;18.20;99.90;;;;;;4982501;28;20424;-80
2023/10/03 03:18:19;;;;;;;32.03;16.48;;;18.10;99.90;;;;;;5011402;28;20440;-82
2023/10/03 03:20:50;;;;;;;28.75;16.00;;;18.40;99.90;;;;;;4990721;28;20503;-81
2023/10/03 03:23:17;;;;;;;29.65;16.15;;;18.10;99.90;;;;;;5008104;28;20413;-81
2023/10/03 03:25:43;;;;;;;29.13;15.95;;;18.20;99.90;;;;;;5003405;28;20413;-82
2023/10/03 03:28:14;;;;;;;32.85;16.02;;;18.50;99.90;;;;;;4994000;28;20501;-81
2023/10/03 03:30:47;;;;;;;28.17;15.20;;;18.30;99.90;;;;;;4995243;28;20410;-82
2023/10/03 03:33:19;;;;;;;29.23;15.35;;;18.30;99.90;;;;;;4993457;28;20411;-81
2023/10/03 03:35:46;;;;;;;31.63;15.52;;;18.50;99.90;;;;;;4998045;28;20425;-81
2023/10/03 03:38:18;;;;;;;31.38;16.42;;;18.40;99.90;;;;;;4998087;28;20506;-82
2023/10/03 03:40:53;;;;;;;29.83;15.35;;;18.60;99.90;;;;;;5006540;28;20415;-81
2023/10/03 03:43:21;;;;;;;29.73;16.02;;;18.60;99.90;;;;;;4985751;28;20438;-82
2023/10/03 03:45:48;;;;;;;30.58;15.48;;;18.40;99.90;;;;;;4980950;28;20415;-82
2023/10/03 03:48:14;;;;;;;28.13;15.80;;;18.40;99.90;;;;;;4976330;28;20435;-82
2023/10/03 03:50:41;;;;;;;31.08;15.52;;;18.50;99.90;;;;;;4975376;28;20832;-79
2023/10/03 03:53:07;;;;;;;28.38;15.63;;;18.60;99.90;;;;;;4980573;28;20893;-80
2023/10/03 03:55:35;;;;;;;28.70;16.02;;;18.40;99.90;;;;;;5002130;28;20413;-81
2023/10/03 03:58:12;;;;;;;31.45;14.80;;;18.30;99.90;;;;;;5007928;28;20413;-81
2023/10/03 04:00:39;;;;;;;28.27;15.20;;;18.40;99.90;;;;;;4998423;28;20418;-81
2023/10/03 04:03:07;;;;;;;30.80;15.60;;;18.40;99.90;;;;;;4992790;28;20433;-82
2023/10/03 04:05:34;;;;;;;29.02;14.88;;;18.30;99.90;;;;;;5002275;28;20434;-81
2023/10/03 04:08:00;;;;;;;30.63;15.40;;;18.20;99.90;;;;;;4992321;28;20427;-82
2023/10/03 04:10:26;;;;;;;28.63;14.87;;;18.30;99.90;;;;;;4976655;28;20415;-83
2023/10/03 04:12:54;;;;;;;28.08;15.60;;;18.30;99.90;;;;;;5000555;28;20412;-84
2023/10/03 04:15:20;;;;;;;29.38;15.23;;;18.20;99.90;;;;;;4979221;28;20551;-83
2023/10/03 04:17:48;;;;;;;29.75;15.57;;;18.10;99.90;;;;;;4979988;28;20411;-81
2023/10/03 04:20:25;;;;;;;31.35;15.32;;;18.30;99.90;;;;;;5010221;28;20922;-81
2023/10/03 04:22:52;;;;;;;29.25;14.98;;;18.40;99.90;;;;;;4991632;28;20450;-81
2023/10/03 04:25:22;;;;;;;28.35;14.95;;;18.10;99.90;;;;;;4997527;28;20429;-86
2023/10/03 04:27:49;;;;;;;31.88;14.18;;;18.10;99.90;;;;;;4991245;28;20437;-81
2023/10/03 04:30:16;;;;;;;28.50;15.05;;;18.20;99.90;;;;;;4992693;28;20484;-82
2023/10/03 04:32:42;;;;;;;27.77;14.30;;;18.20;99.90;;;;;;4996887;28;20991;-83
2023/10/03 04:35:12;;;;;;;30.37;15.10;;;18.00;99.90;;;;;;4980137;28;20453;-84
2023/10/03 04:37:42;;;;;;;29.17;14.32;;;18.40;99.90;;;;;;4980623;28;20908;-84
2023/10/03 04:40:15;;;;;;;26.63;13.95;;;18.40;99.90;;;;;;5009407;28;20466;-85
2023/10/03 04:42:41;;;;;;;30.02;14.65;;;18.30;99.90;;;;;;5005354;28;20415;-84
2023/10/03 04:45:13;;;;;;;28.42;14.32;;;18.40;99.90;;;;;;5008874;28;20425;-84
2023/10/03 04:47:45;;;;;;;26.50;14.68;;;18.40;99.90;;;;;;4975788;28;20866;-84
2023/10/03 04:50:18;;;;;;;27.20;14.18;;;18.60;99.90;;;;;;4996289;28;20414;-84
2023/10/03 04:52:48;;;;;;;27.38;13.98;;;18.40;99.90;;;;;;4986586;28;20422;-84
2023/10/03 04:55:21;;;;;;;26.15;13.75;;;18.50;99.90;;;;;;4992423;28;20552;-83
2023/10/03 04:57:49;;;;;;;24.63;13.48;;;18.80;99.90;;;;;;4992956;28;20438;-85
2023/10/03 05:00:17;;;;;;;25.88;13.35;;;18.70;99.90;;;;;;5009389;28;20496;-83
2023/10/03 05:02:47;;;;;;;27.50;13.53;;;19.10;99.90;;;;;;5008005;28;20501;-84
2023/10/03 05:05:20;;;;;;;27.17;12.83;;;18.90;99.90;;;;;;5005012;28;20402;-83
2023/10/03 05:07:56;;;;;;;29.00;13.82;;;18.90;99.90;;;;;;5006024;28;20460;-82
2023/10/03 05:10:23;;;;;;;28.15;13.52;;;19.20;99.90;;;;;;5020373;28;20428;-83
2023/10/03 05:12:52;;;;;;;29.35;13.48;;;19.00;99.90;;;;;;4987629;28;20446;-83
2023/10/03 05:15:19;;;;;;;29.63;13.80;;;19.20;99.90;;;;;;5006306;28;20478;-83
2023/10/03 05:17:47;;;;;;;29.50;14.07;;;19.00;99.90;;;;;;4992100;28;20492;-83
2023/10/03 05:20:17;;;;;;;32.80;14.50;;;19.20;99.90;;;;;;5007275;28;20408;-83
2023/10/03 05:22:45;;;;;;;31.42;14.60;;;19.00;99.90;;;;;;4996692;28;20395;-82
2023/10/03 05:25:12;;;;;;;33.25;15.02;;;19.10;99.90;;;;;;5011308;28;20460;-83
2023/10/03 05:27:42;;;;;;;32.10;16.15;;;18.90;99.90;;;;;;5012966;28;20419;-84
2023/10/03 05:30:10;;;;;;;30.45;15.20;;;19.20;99.90;;;;;;4997327;28;20415;-84
2023/10/03 05:32:36;;;;;;;35.22;15.95;;;19.20;99.90;;;;;;4992304;28;20473;-82
2023/10/03 05:35:06;;;;;;;36.20;16.77;;;19.20;99.90;;;;;;4984703;28;20411;-82
2023/10/03 05:37:33;;;;;;;33.90;16.63;;;19.10;99.90;;;;;;4958373;28;20477;-83
2023/10/03 05:40:12;;;;;;;34.42;17.00;;;19.20;99.90;;;;;;4988802;28;20419;-83
2023/10/03 05:42:40;;;;;;;33.63;16.37;;;19.30;99.90;;;;;;4986675;28;20996;-82
2023/10/03 05:45:12;;;;;;;35.25;16.92;;;18.90;99.90;;;;;;4963626;28;20426;-83
2023/10/03 05:47:48;;;;;;;38.08;16.65;;;19.00;99.90;;;;;;4989674;28;20426;-83
2023/10/03 05:50:21;;;;;;;40.17;17.35;;;19.20;99.90;;;;;;4990003;28;20415;-83
2023/10/03 05:52:48;;;;;;;36.50;16.70;;;19.10;99.90;;;;;;4982000;28;20682;-83
2023/10/03 05:55:14;;;;;;;38.80;16.85;;;18.90;99.90;;;;;;5006190;28;20946;-84
2023/10/03 05:57:42;;;;;;;39.23;17.47;;;19.30;99.90;;;;;;4989954;28;20454;-83
2023/10/03 06:00:16;;;;;;;38.15;17.08;;;19.30;99.90;;;;;;4989795;28;20416;-82
2023/10/03 06:02:43;;;;;;;39.92;17.55;;;19.00;99.90;;;;;;4992995;28;20433;-83
2023/10/03 06:05:11;;;;;;;38.15;18.45;;;18.60;99.90;;;;;;4993473;28;20900;-83
2023/10/03 06:07:37;;;;;;;35.20;17.08;;;19.10;99.90;;;;;;4995779;28;20433;-83
2023/10/03 06:10:04;;;;;;;35.10;16.20;;;19.10;99.90;;;;;;4995523;28;20397;-82
2023/10/03 06:12:31;;;;;;;33.03;15.75;;;19.00;99.90;;;;;;4989418;28;20491;-81
2023/10/03 06:14:56;;;;;;;33.10;15.50;;;18.80;99.90;;;;;;4995603;28;20441;-83
2023/10/03 06:17:22;;;;;;;33.65;15.38;;;18.90;99.90;;;;;;5006216;28;20448;-83
2023/10/03 06:19:50;;;;;;;31.40;14.52;;;19.20;99.90;;;;;;4996800;28;20436;-83
2023/10/03 06:22:15;;;;;;;31.23;13.95;;;18.80;99.90;;;;;;4984803;28;20433;-82
2023/10/03 06:24:41;;;;;;;28.77;13.02;;;18.70;99.90;;;;;;5002395;28;20446;-82
2023/10/03 06:27:09;;;;;;;30.75;12.35;;;19.00;99.90;;;;;;4991710;28;20453;-82
2023/10/03 06:29:41;;;;;;;25.63;11.48;;;18.70;99.90;;;;;;4995315;28;20434;-81
2023/10/03 06:32:07;;;;;;;26.77;11.43;;;18.80;99.90;;;;;;4994075;28;20471;-81
2023/10/03 06:34:33;;;;;;;25.63;10.90;;;18.90;99.90;;;;;;4996916;28;20495;-81
2023/10/03 06:36:59;;;;;;;26.48;11.02;;;18.60;99.90;;;;;;4989769;28;20772;-81
2023/10/03 06:39:25;;;;;;;22.73;10.43;;;18.60;99.90;;;;;;4998563;28;20773;-80
2023/10/03 06:41:55;;;;;;;21.30;9.93;;;18.60;99.90;;;;;;4993212;28;20406;-81
2023/10/03 06:44:21;;;;;;;24.38;9.77;;;18.80;99.90;;;;;;4984503;28;20510;-81
2023/10/03 06:46:47;;;;;;;24.70;9.40;;;18.60;99.90;;;;;;4976017;28;20442;-81
2023/10/03 06:49:13;;;;;;;20.67;8.82;;;18.70;99.90;;;;;;4977155;28;20403;-81
2023/10/03 06:51:39;;;;;;;22.35;9.13;;;18.60;99.90;;;;;;4996375;28;20776;-80
2023/10/03 06:54:05;;;;;;;18.88;7.78;;;18.60;99.90;;;;;;4975473;28;20418;-81
2023/10/03 06:56:32;;;;;;;20.33;7.07;;;18.50;99.90;;;;;;4979928;28;20945;-80
2023/10/03 06:59:04;;;;;;;19.70;7.07;;;18.00;99.90;;;;;;5006444;28;20405;-80
2023/10/03 07:01:29;;;;;;;17.85;6.53;;;18.30;99.90;;;;;;4971330;28;20805;-78
2023/10/03 07:03:57;;;;;;;18.65;7.00;;;18.40;99.90;;;;;;4989339;28;20434;-81
2023/10/03 07:06:23;;;;;;;17.20;6.18;;;18.40;99.90;;;;;;5008493;28;20524;-82
2023/10/03 07:08:49;;;;;;;14.50;5.85;;;20.20;99.90;;;;;;4992703;28;20406;-82
2023/10/03 07:11:16;;;;;;;16.67;5.97;;;18.50;99.90;;;;;;4966571;28;20436;-81
2023/10/03 07:13:43;;;;;;;17.25;6.13;;;18.10;99.90;;;;;;5004699;28;20418;-81
2023/10/03 07:16:11;;;;;;;15.95;5.47;;;18.10;99.90;;;;;;4998277;28;20827;-82
2023/10/03 07:18:39;;;;;;;17.95;6.05;;;18.30;99.90;;;;;;5003770;28;20407;-82
2023/10/03 07:21:05;;;;;;;18.55;6.30;;;18.10;99.90;;;;;;5010221;28;20396;-81
2023/10/03 07:23:31;;;;;;;18.93;6.50;;;18.20;99.90;;;;;;4968428;28;20456;-79
2023/10/03 07:25:57;;;;;;;20.85;6.70;;;18.10;99.90;;;;;;4996880;28;20906;-79
2023/10/03 07:28:32;;;;;;;20.05;6.97;;;18.40;99.90;;;;;;4996859;28;20445;-79
2023/10/03 07:30:57;;;;;;;25.35;8.77;;;18.10;99.90;;;;;;4999346;28;20445;-79
2023/10/03 07:33:23;;;;;;;30.38;9.95;;;17.90;99.90;;;;;;5016335;28;20417;-79
2023/10/03 07:35:50;;;;;;;29.98;10.60;;;17.80;99.90;;;;;;5000887;28;20417;-78
2023/10/03 07:38:15;;;;;;;32.47;10.65;;;17.40;99.90;;;;;;4993024;28;20475;-78
2023/10/03 07:40:41;;;;;;;27.23;9.52;;;17.40;99.90;;;;;;5004574;28;20415;-80
2023/10/03 07:43:10;;;;;;;27.77;10.40;;;17.30;99.90;;;;;;4990192;28;20441;-79
2023/10/03 07:45:40;;;;;;;26.50;9.88;;;17.20;99.90;;;;;;4996283;28;21454;-80
2023/10/03 07:48:09;;;;;;;22.75;8.73;;;17.20;99.90;;;;;;5003257;28;20478;-81
2023/10/03 07:50:38;;;;;;;22.53;7.60;;;16.90;99.90;;;;;;5008659;28;20413;-80
2023/10/03 07:53:05;;;;;;;22.77;6.57;;;17.20;99.90;;;;;;4975772;28;20410;-80
2023/10/03 07:55:35;;;;;;;16.50;5.70;;;16.60;99.90;;;;;;5006737;28;20407;-80
2023/10/03 07:58:01;;;;;;;16.15;5.15;;;16.80;99.90;;;;;;4997981;28;20423;-79
2023/10/03 08:00:27;;;;;;;18.07;5.90;;;16.80;99.90;;;;;;4991360;28;20414;-80
2023/10/03 08:02:53;;;;;;;17.20;5.53;;;16.80;99.90;;;;;;4974686;28;20877;-80
2023/10/03 08:05:20;;;;;;;15.77;5.17;;;16.80;99.90;;;;;;4987718;28;20522;-80
2023/10/03 08:07:47;;;;;;;15.15;5.20;;;16.60;99.90;;;;;;5005858;28;20432;-80
2023/10/03 08:10:17;;;;;;;20.85;5.00;;;16.80;99.90;;;;;;4985243;28;20560;-80
2023/10/03 08:12:44;;;;;;;17.23;5.55;;;16.80;99.90;;;;;;4977647;28;20432;-79
2023/10/03 08:15:19;;;;;;;15.00;4.93;;;14.80;99.90;;;;;;4977196;28;20749;-79
2023/10/03 08:17:53;;;;;;;13.88;4.43;;;16.80;99.90;;;;;;4997037;28;20414;-79
2023/10/03 08:20:22;;;;;;;16.02;3.85;;;16.50;99.90;;;;;;5003512;28;20417;-80
2023/10/03 08:22:51;;;;;;;15.35;3.60;;;16.80;99.90;;;;;;5000609;28;20401;-80
2023/10/03 08:25:22;;;;;;;14.63;3.50;;;16.60;99.90;;;;;;4990094;28;20433;-79
2023/10/03 08:27:49;;;;;;;15.80;3.70;;;16.80;99.90;;;;;;4986271;28;20956;-80
2023/10/03 08:30:29;;;;;;;10.13;2.78;;;16.70;99.90;;;;;;4994000;28;20410;-81
2023/10/03 08:33:01;;;;;;;10.13;2.60;;;16.40;99.90;;;;;;4962587;28;20758;-80
2023/10/03 08:35:37;;;;;;;10.40;2.40;;;16.60;99.90;;;;;;5000837;28;20416;-80
2023/10/03 08:38:09;;;;;;;11.52;2.72;;;16.50;99.90;;;;;;5003645;28;20420;-79
2023/10/03 08:40:39;;;;;;;12.37;2.00;;;16.70;99.90;;;;;;5009199;28;20498;-81
2023/10/03 08:43:10;;;;;;;12.93;2.70;;;16.60;99.90;;;;;;4984153;28;20498;-80
2023/10/03 08:45:41;;;;;;;10.02;1.77;;;16.60;99.90;;;;;;5001807;28;20505;-81
2023/10/03 08:48:07;;;;;;;7.28;2.20;;;16.70;99.90;;;;;;4994817;28;20436;-81
2023/10/03 08:50:57;;;;;;;9.70;2.17;;;16.70;99.90;;;;;;4994608;28;20420;-80
2023/10/03 08:53:27;;;;;;;9.23;1.70;;;16.80;99.90;;;;;;4992194;28;20925;-80
2023/10/03 08:56:03;;;;;;;10.55;1.95;;;16.80;99.90;;;;;;4992790;28;20406;-79
2023/10/03 08:58:29;;;;;;;6.10;1.13;;;16.50;99.90;;;;;;4975543;28;20418;-79
2023/10/03 09:01:01;;;;;;;5.20;1.20;;;16.10;99.90;;;;;;4993563;28;20434;-80
2023/10/03 09:03:29;;;;;;;7.10;1.20;;;15.70;99.90;;;;;;4996127;28;21009;-81
2023/10/03 09:05:58;;;;;;;5.90;1.13;;;15.70;99.90;;;;;;4982790;28;20493;-83
2023/10/03 09:08:26;;;;;;;8.27;1.33;;;15.50;99.90;;;;;;4978741;28;20493;-81
2023/10/03 09:10:52;;;;;;;5.65;1.20;;;15.40;99.90;;;;;;4977145;28;20449;-79
2023/10/03 09:13:23;;;;;;;5.80;1.42;;;15.50;99.90;;;;;;4996120;28;20450;-79
2023/10/03 09:16:14;;;;;;;4.43;0.90;;;15.40;99.90;;;;;;4989080;28;20418;-78
2023/10/03 09:18:41;;;;;;;3.23;0.83;;;15.10;99.90;;;;;;4993836;28;20518;-78
2023/10/03 09:21:23;;;;;;;4.47;0.98;;;15.10;99.90;;;;;;5002507;28;20454;-77
2023/10/03 09:24:09;;;;;;;4.18;1.00;;;14.80;99.90;;;;;;4993568;28;20429;-79
2023/10/03 09:26:51;;;;;;;4.05;1.02;;;14.70;99.90;;;;;;4991048;28;20425;-79
2023/10/03 09:29:41;;;;;;;6.35;0.90;;;14.60;99.90;;;;;;4983628;28;20429;-79
2023/10/03 09:37:58;;;;;;;5.28;1.00;;;14.50;99.90;;;;;;5735846;23;20507;-75
2023/10/03 09:40:25;;;;;;;7.22;1.20;;;14.90;99.90;;;;;;5379758;22;20436;-74
2023/10/03 09:45:56;;;;;;;9.85;1.45;;;14.80;99.90;;;;;;4983609;23;20795;-82
2023/10/03 09:48:26;;;;;;;5.00;1.20;;;14.60;99.90;;;;;;4912701;29;20493;-81
2023/10/03 09:51:05;;;;;;;9.55;2.25;;;15.00;99.90;;;;;;4904424;29;20428;-81
2023/10/03 09:53:32;;;;;;;5.00;1.38;;;14.90;99.90;;;;;;4911521;29;20432;-81
2023/10/03 09:56:00;;;;;;;5.13;1.40;;;14.70;99.90;;;;;;4924377;29;21031;-81
2023/10/03 09:58:31;;;;;;;5.05;1.20;;;15.00;99.90;;;;;;4917647;29;20456;-81
2023/10/03 10:00:58;;;;;;;5.47;1.20;;;14.70;99.90;;;;;;4898184;29;20448;-80
2023/10/03 10:03:28;;;;;;;7.90;1.55;;;;;;;;;;4926821;29;20490;-81
2023/10/03 10:06:12;;;;;;;5.97;1.60;;;;;;;;;;4904988;29;20444;-81
2023/10/03 10:09:13;;;;;;;7.70;1.30;;;15.00;99.90;;;;;;4913384;29;20460;-82
2023/10/03 10:12:11;;;;;;;4.40;1.48;;;15.00;99.90;;;;;;4919594;29;20907;-81
2023/10/03 10:14:56;;;;;;;6.28;1.45;;;;;;;;;;4917541;29;20488;-82
2023/10/03 10:17:21;;;;;;;5.90;1.40;;;15.10;99.90;;;;;;4917051;29;20419;-82
2023/10/03 10:20:13;;;;;;;5.65;1.30;;;15.20;99.90;;;;;;4914688;29;20431;-79
2023/10/03 10:23:01;;;;;;;4.25;1.20;;;15.10;99.90;;;;;;4921558;29;20831;-79
2023/10/03 10:25:27;;;;;;;7.35;1.55;;;15.40;99.90;;;;;;4926624;29;20420;-81
2023/10/03 10:28:08;;;;;;;7.18;2.10;;;15.40;99.90;;;;;;4923414;29;20432;-81
2023/10/03 10:30:44;;;;;;;7.82;1.60;;;15.30;99.90;;;;;;4923514;29;20425;-81
2023/10/03 10:33:17;;;;;;;5.22;1.55;;;15.40;99.90;;;;;;4924017;29;20905;-81
2023/10/03 10:35:56;;;;;;;7.20;1.67;;;15.10;99.90;;;;;;4900423;29;20420;-81
2023/10/03 10:38:31;;;;;;;5.95;1.70;;;15.10;99.90;;;;;;4916067;29;20920;-81
2023/10/03 10:41:30;;;;;;;5.78;1.48;;;15.20;99.90;;;;;;4924622;29;20421;-81
2023/10/03 10:44:09;;;;;;;7.47;1.58;;;15.20;99.90;;;;;;4875641;29;20913;-81
2023/10/03 10:46:44;;;;;;;7.32;1.88;;;15.30;99.90;;;;;;4896508;29;20933;-81
2023/10/03 10:49:35;;;;;;;5.72;1.45;;;14.90;99.90;;;;;;4900520;29;20920;-79
2023/10/03 10:52:01;;;;;;;6.15;1.90;;;14.60;99.90;;;;;;4905960;29;20487;-81
2023/10/03 10:54:28;;;;;;;10.10;1.92;;;14.50;99.90;;;;;;4911866;29;20425;-79
2023/10/03 10:57:00;;;;;;;8.57;1.90;;;14.50;99.90;;;;;;4896331;29;20440;-78
2023/10/03 10:59:27;;;;;;;7.25;1.90;;;14.60;99.90;;;;;;4874801;29;20709;-79
2023/10/03 11:01:53;;;;;;;9.10;2.08;;;14.40;99.90;;;;;;4897781;29;20421;-80
2023/10/03 11:04:23;;;;;;;7.65;1.90;;;14.60;99.90;;;;;;4893183;29;20953;-80
2023/10/03 11:06:52;;;;;;;6.22;1.90;;;14.40;99.90;;;;;;4909879;29;20441;-81
2023/10/03 11:09:20;;;;;;;6.38;1.65;;;14.30;99.90;;;;;;4918238;29;20463;-80
2023/10/03 11:11:47;;;;;;;6.83;1.40;;;14.30;99.90;;;;;;4893813;29;20564;-80
2023/10/03 11:14:28;;;;;;;6.70;1.70;;;14.20;99.90;;;;;;4899604;29;20420;-80
2023/10/03 11:16:55;;;;;;;5.88;1.42;;;14.30;99.90;;;;;;4914500;29;20504;-80
2023/10/03 11:19:22;;;;;;;5.15;1.40;;;14.20;99.90;;;;;;4896098;29;20427;-81
2023/10/03 11:21:48;;;;;;;5.53;1.58;;;;;;;;;;4917323;29;20464;-80
2023/10/03 11:24:21;;;;;;;7.55;1.73;;;14.10;99.90;;;;;;4899001;29;20996;-81
2023/10/03 11:26:47;;;;;;;4.45;1.52;;;;;;;;;;4905950;29;20481;-80
2023/10/03 11:29:15;;;;;;;7.18;2.40;;;13.90;99.90;;;;;;4902624;29;20793;-80
2023/10/03 11:31:45;;;;;;;5.60;1.70;;;13.70;99.90;;;;;;4901074;29;20632;-80
2023/10/03 11:34:11;;;;;;;6.85;2.25;;;13.80;99.90;;;;;;4916090;29;20417;-80
2023/10/03 11:36:45;;;;;;;6.07;1.60;;;13.40;99.90;;;;;;4913904;29;20433;-80
2023/10/03 11:39:12;;;;;;;5.20;1.80;;;;;;;;;;4913955;29;20416;-80
2023/10/03 11:41:39;;;;;;;9.05;2.67;;;13.50;99.90;;;;;;4903053;29;20417;-80
2023/10/03 11:44:25;;;;;;;8.13;2.33;;;13.60;99.90;;;;;;4922458;29;20464;-81
2023/10/03 11:46:51;;;;;;;8.13;2.42;;;13.70;99.90;;;;;;4900666;29;20512;-80
2023/10/03 11:49:17;;;;;;;7.10;2.72;;;13.70;99.90;;;;;;4918667;29;20421;-80
2023/10/03 11:51:43;;;;;;;8.83;2.63;;;13.70;99.90;;;;;;4911141;29;20421;-80
2023/10/03 11:54:10;;;;;;;10.77;2.80;;;;;;;;;;4884185;29;20417;-80
2023/10/03 11:56:44;;;;;;;7.85;2.53;;;13.80;99.90;;;;;;4893484;29;20433;-81
2023/10/03 11:59:17;;;;;;;6.32;2.83;;;;;;;;;;4875632;29;20419;-80
2023/10/03 12:01:50;;;;;;;8.00;2.50;;;13.80;99.90;;;;;;4894789;29;20421;-80
2023/10/03 12:04:16;;;;;;;8.35;2.80;;;13.60;99.90;;;;;;4915893;29;20413;-81
2023/10/03 12:06:42;;;;;;;8.55;2.80;;;13.60;99.90;;;;;;4893092;29;20432;-80
2023/10/03 12:09:11;;;;;;;7.47;2.93;;;13.60;99.90;;;;;;4896506;29;20417;-81
2023/10/03 12:11:40;;;;;;;9.03;2.90;;;;;;;;;;4910068;29;20453;-80
2023/10/03 12:14:07;;;;;;;11.95;2.65;;;13.50;99.90;;;;;;4878085;29;20782;-81
2023/10/03 12:16:32;;;;;;;7.85;2.80;;;13.50;99.90;;;;;;4897369;29;20475;-81
2023/10/03 12:18:58;;;;;;;6.00;2.60;;;;;;;;;;4882528;29;20455;-81
2023/10/03 12:21:25;;;;;;;9.48;3.08;;;13.50;99.90;;;;;;4916089;29;20786;-81
2023/10/03 12:23:50;;;;;;;11.15;2.97;;;13.90;99.90;;;;;;4899244;29;20424;-82
2023/10/03 12:26:16;;;;;;;11.88;3.00;;;;;;;;;;4882375;29;20423;-81
2023/10/03 12:28:42;;;;;;;8.88;3.05;;;;;;;;;;4922780;29;20449;-81
2023/10/03 12:31:09;;;;;;;10.95;3.03;;;14.00;99.90;;;;;;4913302;29;20441;-81
2023/10/03 12:33:35;;;;;;;7.20;2.78;;;14.20;99.90;;;;;;4892657;29;20421;-82
2023/10/03 12:36:02;;;;;;;14.40;3.05;;;14.00;99.90;;;;;;4908367;29;20472;-81
2023/10/03 12:38:28;;;;;;;11.27;2.90;;;14.20;99.90;;;;;;4913300;29;20453;-82
2023/10/03 12:40:54;;;;;;;10.35;3.00;;;14.30;99.90;;;;;;4908452;29;20472;-82
2023/10/03 12:43:21;;;;;;;9.48;3.08;;;14.20;99.90;;;;;;4889426;29;20448;-82
2023/10/03 12:45:49;;;;;;;10.93;2.92;;;14.30;99.90;;;;;;4883378;29;20433;-81
2023/10/03 12:48:15;;;;;;;11.98;3.10;;;14.50;99.90;;;;;;4898071;29;20786;-82
2023/10/03 12:50:44;;;;;;;9.75;3.22;;;;;;;;;;4914686;29;20413;-81
2023/10/03 12:53:10;;;;;;;9.50;2.63;;;14.40;99.90;;;;;;4911039;29;20923;-82
2023/10/03 12:55:38;;;;;;;9.18;3.17;;;14.70;99.90;;;;;;4898580;29;20432;-81
2023/10/03 12:58:03;;;;;;;11.35;2.85;;;14.60;99.90;;;;;;4905326;29;20923;-80
2023/10/03 13:00:29;;;;;;;10.43;2.80;;;;;;;;;;4896901;29;20427;-80